Date,TemperatureHighF,TemperatureAvgF,TemperatureLowF,DewpointHighF,DewpointAvgF,DewpointLowF,HumidityHigh,HumidityAvg,HumidityLow,PressureMaxIn,PressureMinIn,WindSpeedMaxMPH,WindSpeedAvgMPH,GustSpeedMaxMPH,PrecipitationSumIn
2013-1-1,62.9,56.2,44.5,62.3,54.9,43.4,98,95,91,30.10,29.89,6,1,16,1.31
2013-1-2,44.5,40.3,36.7,43.4,38.0,33.1,96,91,86,30.25,30.07,4,1,11,0.00
2013-1-3,47.8,38.6,33.1,34.5,29.6,26.7,92,71,46,30.39,30.21,5,1,11,0.00
2013-1-4,54.4,42.5,33.0,34.3,30.0,26.4,84,64,36,30.46,30.33,4,1,10,0.00
2013-1-5,49.6,43.2,38.8,41.7,37.0,33.3,95,79,58,30.38,30.22,2,0,7,0.09
2013-1-6,54.1,45.1,40.9,45.0,41.6,38.1,97,88,67,30.30,30.20,4,1,12,0.36
2013-1-7,56.9,45.1,34.4,40.0,37.5,33.1,95,77,48,30.33,30.17,4,0,10,0.01
2013-1-8,61.6,53.9,43.4,58.4,50.8,38.6,98,89,77,30.20,30.06,2,0,8,1.06
2013-1-9,66.6,61.5,57.1,66.3,61.1,56.5,100,98,98,30.17,30.07,2,0,9,2.56
2013-1-10,67.9,67.0,63.9,67.4,66.4,62.9,99,98,95,30.14,30.04,4,1,12,0.89
2013-1-11,68.3,65.3,62.5,67.9,64.8,61.9,100,98,96,30.07,29.97,3,0,0,0.31
2013-1-12,74.3,69.7,67.3,69.0,67.5,65.3,99,93,81,30.01,29.86,7,1,14,0.01
2013-1-13,71.9,69.3,54.8,70.2,67.3,53.7,96,93,82,29.90,29.78,10,2,26,0.93
2013-1-14,42.4,39.0,33.5,41.7,38.1,32.5,98,97,95,30.18,30.05,14,2,11,1.36
2013-1-15,40.5,38.2,35.0,40.0,37.7,34.2,98,98,97,30.10,29.97,3,1,9,0.83
2013-1-16,35.0,34.0,32.9,34.2,33.2,32.1,98,97,95,30.15,30.00,6,1,13,0.26
2013-1-17,50.6,39.9,32.6,36.7,34.4,31.4,97,82,57,30.43,30.12,8,2,17,0.05
2013-1-18,57.0,44.0,33.3,36.9,32.7,27.2,95,68,33,30.53,30.38,4,1,10,0.00
2013-1-19,60.7,46.0,33.5,46.8,39.4,-99.9,97,81,55,30.38,30.22,4,0,3,0.00
2013-1-20,65.3,50.4,39.7,45.4,39.6,34.5,98,71,34,30.26,30.12,2,0,7,0.01
2013-1-21,63.7,51.7,41.6,47.2,42.0,36.5,90,71,48,30.21,30.12,4,0,9,0.00
2013-1-22,61.3,47.6,37.7,43.6,36.6,28.8,82,67,48,30.35,30.19,3,0,11,0.00
2013-1-23,69.0,54.7,43.0,49.9,45.1,39.8,95,73,43,30.36,30.24,3,0,10,0.00
2013-1-24,70.9,60.1,51.0,59.5,55.0,48.9,96,84,66,30.31,30.17,3,0,9,0.00
2013-1-25,74.0,62.2,52.6,59.6,55.7,51.6,97,81,54,30.21,30.08,6,1,22,0.01
2013-1-26,71.0,61.0,55.8,61.1,57.9,55.0,98,90,65,30.22,30.14,1,0,6,0.00
2013-1-27,71.3,60.5,53.4,60.3,56.4,52.8,99,88,61,30.25,30.15,4,0,11,0.01
2013-1-28,73.7,63.7,58.2,64.5,60.8,57.1,97,91,68,30.23,30.08,2,0,10,0.00
2013-1-29,77.7,70.6,64.6,68.6,66.4,63.7,97,87,67,30.08,29.70,8,2,18,0.00
2013-1-30,71.5,54.3,36.2,68.0,46.6,31.3,97,77,46,30.15,29.60,11,3,27,0.85
2013-1-31,58.7,44.7,31.4,35.5,30.5,25.6,94,62,30,30.31,30.14,5,0,10,0.00
2013-2-1,59.0,47.4,40.8,35.8,32.8,28.4,78,59,34,30.41,30.28,6,1,11,0.00
2013-2-2,67.6,52.4,36.8,52.2,41.1,26.6,93,66,50,30.32,30.14,6,1,15,0.07
2013-2-3,65.7,53.3,43.5,49.3,39.2,30.0,97,65,27,30.27,30.10,6,1,13,0.00
2013-2-4,56.8,50.1,43.9,50.6,41.3,33.4,91,72,58,30.10,29.93,1,0,6,0.00
2013-2-5,71.3,59.6,52.6,59.7,55.5,50.6,98,87,56,30.01,29.91,1,0,5,0.00
2013-2-6,66.5,58.9,53.6,59.9,56.7,52.9,98,93,77,30.10,29.94,2,0,11,0.22
2013-2-7,67.0,59.3,53.7,59.1,56.8,52.9,98,92,73,29.94,29.80,5,1,12,1.11
2013-2-8,63.6,56.1,49.6,58.6,53.3,45.6,98,90,81,30.17,29.93,6,1,13,0.00
2013-2-9,63.1,51.6,39.7,55.4,47.8,38.1,95,87,72,30.23,30.02,3,1,10,0.00
2013-2-10,68.8,62.4,57.1,68.2,61.5,55.4,98,97,94,30.03,29.82,5,1,16,0.27
2013-2-11,60.6,53.9,50.8,60.1,53.2,50.0,99,98,94,30.15,29.94,8,1,20,0.18
2013-2-12,57.4,54.2,51.5,57.1,53.8,51.0,99,98,96,30.08,29.71,4,1,12,0.04
2013-2-13,52.7,47.0,38.2,51.5,42.7,36.4,98,85,69,30.06,29.83,6,2,17,0.01
2013-2-14,58.9,44.6,32.8,42.5,36.8,31.9,98,77,45,30.15,30.04,3,0,7,0.00
2013-2-15,63.2,49.2,35.9,44.7,38.4,34.3,96,69,40,30.18,30.06,5,1,11,0.00
2013-2-16,47.8,42.3,34.4,39.0,26.1,18.2,76,55,32,30.28,30.15,10,2,22,0.00
2013-2-17,59.0,44.2,29.8,39.0,30.6,23.4,85,61,39,30.34,30.18,4,0,14,0.00
2013-2-18,62.0,52.8,42.2,58.2,48.1,38.3,97,84,69,30.21,29.92,7,2,19,0.00
2013-2-19,60.1,53.5,42.7,59.4,40.4,28.5,98,65,32,30.23,29.92,7,2,14,0.00
2013-2-20,56.4,46.2,35.9,34.2,29.8,25.7,80,54,34,30.25,30.03,5,1,13,0.00
2013-2-21,68.3,57.1,45.3,67.3,49.1,28.1,98,76,49,30.03,29.71,7,2,19,0.00
2013-2-22,63.1,57.9,52.2,60.4,53.0,48.3,97,84,60,29.98,29.85,2,0,9,0.00
2013-2-23,61.0,53.5,46.3,52.0,48.8,42.1,96,85,67,29.96,29.84,4,1,10,0.00
2013-2-24,69.5,54.9,40.5,56.1,45.5,38.6,96,73,44,30.00,29.70,8,1,18,0.00
2013-2-25,65.3,60.4,54.2,62.6,59.0,45.0,100,95,71,29.75,29.40,7,1,22,0.00
2013-2-26,54.1,46.3,43.8,45.1,37.2,34.5,76,70,64,29.67,29.51,5,2,14,0.00
2013-2-28,43.1,40.8,39.7,37.6,33.2,-99.9,85,78,73,30.09,-32.77,0,-20,11,0.00
2013-3-1,53.2,42.7,33.5,36.0,32.1,27.8,93,68,42,30.17,30.05,8,2,18,0.00
2013-3-2,41.1,34.3,28.8,30.1,26.7,24.0,94,74,53,30.25,30.14,7,2,15,0.06
2013-3-3,54.2,39.4,25.5,32.0,25.7,21.0,89,62,33,30.28,30.10,4,0,11,0.40
2013-3-4,68.8,54.8,37.5,56.5,45.7,31.8,90,73,52,30.10,29.88,9,2,24,0.03
2013-3-5,68.7,60.1,46.8,61.9,50.1,31.9,92,72,40,30.18,29.87,10,2,17,0.04
2013-3-6,55.3,43.4,37.3,32.0,28.7,25.1,71,57,38,30.29,30.18,3,0,11,0.00
2013-3-7,62.5,47.3,34.1,40.1,33.8,30.1,86,62,36,30.35,30.21,2,0,7,0.00
2013-3-8,70.2,54.5,38.4,44.2,39.1,35.4,92,60,30,30.29,30.15,3,0,8,0.00
2013-3-9,68.3,58.7,48.7,58.4,51.2,42.1,91,76,61,30.15,29.91,4,1,14,0.00
2013-3-10,73.2,65.5,56.0,64.8,61.3,54.8,96,87,72,29.94,29.79,8,2,17,0.00
2013-3-11,57.0,48.7,41.6,54.4,43.8,37.8,97,85,51,30.02,29.86,8,2,16,0.00
2013-3-14,68.3,57.4,38.6,39.6,34.3,28.0,75,44,29,30.43,30.26,2,0,10,0.00
2013-3-15,74.5,59.1,42.0,49.2,42.5,35.1,94,58,30,30.27,30.07,4,1,13,0.00
2013-3-16,75.0,62.1,50.7,56.5,51.9,48.4,94,72,45,30.08,29.89,5,1,17,0.00
2013-3-17,76.6,64.3,54.9,63.8,58.4,52.2,97,82,57,29.94,29.77,4,1,16,0.00
2013-3-18,82.0,70.7,60.9,67.8,64.3,58.6,96,82,54,29.91,29.69,9,1,17,0.00
2013-3-19,73.3,60.4,47.4,58.5,42.8,37.0,92,56,31,30.03,29.90,7,2,14,0.00
2013-3-20,65.5,56.6,48.4,40.9,34.9,27.1,60,45,27,30.15,29.99,7,2,13,0.00
2013-3-21,62.8,52.0,43.1,42.6,33.8,26.2,68,51,33,30.06,29.83,4,0,8,0.00
2013-3-22,63.8,58.2,52.3,60.4,52.7,42.6,94,82,67,29.89,29.75,2,0,10,0.00
2013-3-23,70.0,63.9,61.6,66.8,62.8,60.1,99,97,90,29.80,29.55,2,0,8,0.00
2013-3-24,65.7,54.6,41.5,65.1,46.4,30.4,99,77,38,30.01,29.55,12,3,24,0.00
2013-3-25,53.5,42.3,32.6,31.3,25.8,19.2,82,55,29,30.27,30.01,10,3,20,0.00
2013-3-26,51.2,40.8,30.1,28.4,26.1,22.5,85,58,36,30.39,30.27,7,2,14,0.01
2013-3-27,62.1,45.0,31.7,35.4,29.0,25.9,81,57,29,30.43,30.26,4,0,8,0.01
2013-3-28,70.4,54.3,38.2,43.6,37.3,33.8,88,57,29,30.35,30.19,4,0,9,0.00
2013-3-29,74.3,59.0,42.3,54.2,46.2,38.1,96,67,33,30.28,30.13,3,0,13,0.00
2013-3-30,73.7,61.2,51.4,58.7,53.7,-99.9,97,80,47,30.16,29.95,5,1,17,0.08
2013-3-31,69.8,57.8,56.6,63.7,56.4,55.1,98,95,79,30.01,29.80,13,1,25,0.06
2013-4-1,74.5,61.7,53.7,58.9,54.2,48.1,99,79,41,30.07,29.91,3,0,7,0.02
2013-4-2,76.5,63.4,52.5,58.8,52.9,48.3,90,71,45,30.09,29.94,2,0,12,0.02
2013-4-3,62.2,53.0,47.5,56.6,50.9,46.4,97,93,77,30.01,29.80,7,2,17,0.00
2013-4-4,51.5,48.4,45.4,49.4,47.1,43.2,98,95,90,30.03,29.90,4,1,12,0.00
2013-4-5,64.8,51.8,43.8,50.9,46.3,42.4,96,83,57,30.17,30.02,5,2,15,0.00
2013-4-6,72.1,58.1,43.0,54.1,48.7,41.9,97,74,45,30.13,30.00,3,0,17,0.00
2013-4-7,74.3,63.3,53.1,60.0,56.3,51.8,98,80,54,30.07,29.93,3,0,12,0.00
2013-4-8,78.7,68.1,59.6,66.4,62.3,58.8,98,83,56,29.99,29.90,5,1,16,0.01
2013-4-9,82.1,73.8,68.8,71.7,69.0,65.9,94,85,67,29.98,29.87,7,2,18,0.01
2013-4-10,80.1,74.1,70.4,71.3,69.1,67.6,93,85,71,29.92,29.76,6,2,15,0.00
2013-4-11,75.6,62.1,47.7,71.1,59.7,46.6,97,92,76,29.83,29.60,7,2,21,0.21
2013-4-12,72.5,56.6,41.3,49.2,44.8,40.5,98,70,34,29.99,29.81,4,0,11,0.21
2013-4-13,78.7,64.8,51.5,54.2,46.2,42.3,80,53,28,30.02,29.83,3,0,10,0.00
2013-4-14,74.8,65.9,57.3,63.5,60.5,54.0,98,84,67,29.90,29.69,5,0,20,2.15
2013-4-15,80.5,67.9,58.6,73.0,65.4,57.8,99,92,74,29.95,29.78,2,0,11,0.02
2013-4-16,83.1,75.1,70.5,72.7,70.9,69.9,98,88,66,30.05,29.93,4,0,14,0.03
2013-4-17,83.0,74.7,69.7,72.7,69.9,68.2,96,86,65,30.05,29.90,5,1,17,0.00
2013-4-18,80.7,73.1,55.8,72.8,69.2,54.3,95,88,75,29.91,29.72,9,2,25,0.42
2013-4-19,58.1,50.3,44.6,55.1,42.3,37.5,99,76,49,30.17,29.83,8,2,20,0.57
2013-4-20,67.8,54.3,40.0,43.6,39.6,34.8,93,61,36,30.26,30.10,5,1,17,0.00
2013-4-21,72.0,58.9,45.5,48.9,43.2,39.5,82,58,35,30.23,30.08,4,0,10,0.00
2013-4-22,77.8,63.6,50.3,61.2,52.2,44.6,93,69,42,30.13,29.97,4,0,11,0.00
2013-4-23,79.1,69.7,63.1,66.8,64.0,60.9,94,83,62,30.05,29.92,2,1,15,0.00
2013-4-24,68.1,60.8,51.9,66.4,59.0,49.2,98,94,88,30.19,29.96,7,1,13,0.28
2013-4-25,66.8,56.4,48.9,51.9,47.6,40.1,96,75,40,30.31,30.18,5,1,12,0.28
2013-4-26,77.3,63.8,50.6,63.7,54.8,44.3,88,74,53,30.26,30.16,3,0,9,0.00
2013-4-27,78.3,69.7,62.6,68.8,65.4,60.8,98,87,69,30.16,29.98,4,0,13,0.00
2013-4-28,73.0,68.1,61.2,69.0,65.7,59.6,98,92,75,30.05,29.90,5,0,14,0.48
2013-4-29,81.6,67.8,55.4,64.8,59.1,52.3,99,77,40,29.96,29.84,1,0,7,0.00
2013-4-30,75.3,66.5,62.5,69.0,64.4,60.8,98,93,78,29.90,29.83,4,0,15,1.27
2013-5-1,77.5,66.7,63.6,69.2,64.9,62.1,98,94,73,29.89,29.81,3,0,11,0.20
2013-5-2,72.7,65.9,63.2,67.6,64.2,62.3,98,95,81,29.94,29.83,3,0,7,0.03
2013-5-3,65.4,54.2,41.1,64.4,52.6,40.0,98,94,84,30.01,29.85,7,2,16,0.08
2013-5-4,68.6,52.3,37.0,49.0,42.2,36.2,98,73,37,30.00,29.84,5,0,13,0.09
2013-5-5,57.7,51.5,45.1,49.5,44.2,40.3,94,77,56,30.01,29.84,8,2,19,0.00
2013-5-6,70.8,57.0,44.9,55.9,49.3,42.8,94,77,52,30.01,29.91,6,1,16,0.00
2013-5-7,77.3,64.5,51.9,58.9,55.7,51.1,98,76,46,30.03,29.94,4,0,10,0.00
2013-5-8,81.0,67.9,55.0,62.8,59.0,54.1,98,76,48,30.08,29.99,2,0,7,0.00
2013-5-9,81.3,70.3,59.0,66.6,63.0,57.9,98,79,53,30.08,29.98,2,0,12,0.00
2013-5-10,76.1,68.5,62.3,67.0,64.3,61.1,97,87,71,30.03,29.76,5,0,15,0.00
2013-5-11,76.2,67.9,61.7,68.6,64.2,60.8,98,89,68,30.03,29.91,3,0,10,0.02
2013-5-12,75.6,65.3,55.7,61.7,56.3,45.7,98,74,56,30.15,30.02,6,1,14,0.00
2013-5-13,78.3,63.4,48.4,56.3,47.5,41.9,85,59,35,30.28,30.14,3,0,8,0.00
2013-5-14,83.6,68.0,55.1,60.7,56.6,52.6,92,70,41,30.25,30.11,2,0,10,0.00
2013-5-15,80.6,68.6,56.8,64.1,59.9,55.1,97,75,49,30.16,29.99,2,0,8,0.00
2013-5-16,78.9,69.7,59.0,67.2,63.4,57.4,97,82,58,30.01,29.86,3,0,12,0.00
2013-5-17,83.8,75.4,68.6,72.9,70.3,66.9,97,85,68,29.98,29.90,2,0,10,0.00
2013-5-18,86.3,77.5,71.6,74.2,71.4,69.6,96,83,63,30.02,29.93,2,0,10,0.00
2013-5-19,86.0,76.7,69.4,74.3,71.5,68.2,98,85,64,29.98,29.89,3,0,10,0.00
2013-5-20,87.0,78.8,73.0,74.9,72.7,71.2,96,82,64,29.97,29.85,3,1,14,0.00
2013-5-21,86.6,78.4,72.4,73.6,71.8,68.2,97,82,58,29.93,29.76,3,0,11,0.00
2013-5-22,79.9,71.4,65.2,71.9,68.1,64.6,98,90,67,29.93,29.84,4,0,12,1.83
2013-5-23,86.7,77.3,65.5,74.6,70.9,64.6,99,82,57,30.02,29.92,1,0,6,0.00
2013-5-24,83.3,75.8,69.5,70.9,68.4,65.0,94,79,62,30.14,30.00,4,1,9,0.00
2013-5-25,83.8,71.7,60.8,65.9,59.5,53.9,82,67,48,30.22,30.10,2,0,7,0.00
2013-5-26,82.0,71.8,61.8,68.9,62.7,54.9,95,75,42,30.16,30.07,1,0,6,0.00
2013-5-27,85.9,74.6,62.5,70.8,65.7,60.7,95,76,52,30.09,29.98,3,0,11,0.00
2013-5-28,84.0,74.9,64.8,70.2,66.5,63.0,95,76,57,30.04,29.94,3,0,12,0.00
2013-5-29,82.2,75.0,69.0,75.8,71.3,64.0,97,89,74,29.99,29.89,5,1,15,0.06
2013-5-30,84.5,76.5,72.6,75.8,73.0,71.5,98,89,70,29.97,29.89,4,1,15,0.13
2013-5-31,86.0,78.4,73.3,76.6,74.0,72.2,98,87,68,29.98,29.89,3,1,14,0.18
2013-6-1,87.9,79.5,73.8,76.5,73.8,72.0,96,84,63,29.94,29.85,2,0,7,0.00
2013-6-2,82.1,74.4,66.3,74.2,70.5,65.4,98,89,69,30.01,29.83,6,1,14,1.50
2013-6-3,86.4,78.0,70.7,74.4,71.8,69.8,97,82,64,29.91,29.81,4,1,9,0.00
2013-6-4,90.3,79.4,70.5,76.3,73.0,69.3,97,82,56,29.91,29.81,1,0,7,0.00
2013-6-5,85.6,78.5,72.1,78.0,73.8,67.6,98,86,62,29.90,29.74,5,0,9,0.31
2013-6-6,85.6,75.3,69.7,75.9,71.7,68.2,98,89,70,29.83,29.73,4,1,18,0.28
2013-6-7,82.9,73.6,68.5,71.6,68.7,67.0,97,86,61,29.87,29.75,4,0,12,0.29
2013-6-8,85.8,74.3,67.3,75.7,69.2,65.8,98,85,62,29.94,29.85,4,0,9,0.86
2013-6-9,86.9,74.7,67.9,75.0,70.6,67.0,99,88,60,29.95,29.84,2,0,11,0.14
2013-6-10,89.8,77.8,68.8,75.7,72.2,67.9,98,85,56,29.99,29.92,3,0,9,0.15
2013-6-11,91.0,79.8,73.3,77.3,74.4,72.4,99,85,57,30.07,29.97,1,0,7,0.00
2013-6-12,91.1,80.5,73.7,77.2,74.1,70.7,98,83,52,30.06,29.96,2,0,6,0.00
2013-6-13,90.1,80.9,72.6,77.2,74.5,71.7,98,82,59,30.02,29.85,2,0,10,0.00
2013-6-14,87.9,80.1,74.1,77.1,72.9,66.4,95,80,58,29.92,29.84,4,1,10,0.00
2013-6-15,91.5,80.9,68.0,74.5,69.3,64.3,89,70,47,29.98,29.89,2,0,6,0.00
2013-6-16,89.5,81.3,72.1,80.0,75.2,70.8,97,83,64,30.02,29.92,2,0,6,0.00
2013-6-17,90.5,81.6,74.3,75.6,73.8,70.4,96,79,54,29.99,29.86,5,1,14,0.00
2013-6-18,88.1,78.6,69.7,76.1,72.7,68.5,98,83,60,29.97,29.85,8,1,16,0.92
2013-6-19,85.0,75.9,69.6,75.8,72.0,68.8,98,89,68,30.01,29.91,2,0,9,1.60
2013-6-20,89.8,78.2,70.2,76.0,72.5,69.3,98,84,57,30.08,29.98,2,0,8,1.27
2013-6-21,90.1,79.1,69.0,75.6,71.6,68.4,98,80,53,30.09,30.01,2,0,7,1.27
2013-6-22,89.8,78.4,70.7,75.8,71.9,69.3,98,82,54,30.08,29.96,2,0,10,1.34
2013-6-23,89.5,78.5,69.8,75.9,72.4,69.2,99,83,55,30.05,29.96,2,0,8,1.35
2013-6-24,87.3,76.5,71.9,76.8,73.2,70.8,98,90,62,30.09,30.00,3,0,9,0.55
2013-6-25,88.1,78.7,71.7,79.0,74.6,71.1,99,88,66,30.07,29.96,2,0,7,0.03
2013-6-26,90.8,80.4,71.5,76.9,73.9,70.6,98,82,55,30.03,29.91,2,0,7,0.03
2013-6-27,91.2,81.7,72.9,77.8,74.9,72.0,97,81,58,29.99,29.88,3,0,10,0.00
2013-6-28,90.3,80.5,70.9,79.4,75.1,67.5,96,85,63,29.90,29.72,8,0,21,0.28
2013-6-29,86.0,74.5,69.4,78.0,71.9,68.0,98,92,73,29.81,29.66,8,0,18,0.14
2013-6-30,87.0,78.8,68.2,73.1,67.3,59.0,98,71,40,29.79,29.69,6,1,15,0.14
2013-7-1,84.5,75.8,65.4,68.0,65.6,63.5,94,72,51,29.90,29.77,5,1,12,0.00
2013-7-2,84.8,75.6,65.8,71.2,66.3,63.9,94,74,53,29.98,29.88,2,0,7,0.00
2013-7-3,83.9,74.7,68.4,72.5,68.7,64.1,95,82,62,30.00,29.92,4,0,8,0.03
2013-7-4,86.3,76.1,68.1,75.9,70.9,67.2,98,85,61,29.96,29.88,3,0,8,0.03
2013-7-5,80.6,73.9,69.3,75.5,71.0,68.0,96,91,83,29.99,29.90,2,0,12,0.06
2013-7-6,85.5,75.1,68.6,75.8,71.2,67.7,98,89,67,30.00,29.90,2,0,12,0.06
2013-7-7,86.0,76.3,72.8,77.7,73.7,71.6,98,92,71,30.07,29.96,2,0,8,0.24
2013-7-8,90.0,77.3,71.4,77.1,73.2,70.8,99,88,58,30.13,30.02,3,0,9,1.00
2013-7-9,90.1,79.6,71.2,77.5,74.5,70.6,99,86,60,30.16,30.03,1,0,6,0.02
2013-7-10,90.9,81.5,74.1,78.9,75.4,73.5,98,83,61,30.07,29.92,3,0,10,0.02
2013-7-11,87.1,76.6,70.2,78.4,73.8,68.7,98,91,68,30.00,29.87,10,0,23,1.61
2013-7-12,90.0,80.1,69.7,77.0,71.2,66.6,100,77,47,29.92,29.83,5,1,9,1.62
2013-7-13,86.0,77.7,69.7,74.4,69.8,66.3,90,77,62,29.92,29.84,3,0,8,0.00
2013-7-14,86.1,75.2,68.8,76.4,71.3,67.6,97,88,65,29.99,29.88,4,0,12,0.00
2013-7-15,86.4,76.1,68.9,76.6,71.9,67.7,97,88,63,30.09,29.97,2,0,9,0.02
2013-7-16,84.0,76.2,71.2,76.0,72.9,70.3,97,90,74,30.16,30.06,4,0,11,0.03
2013-7-17,88.7,78.8,71.6,77.7,73.6,70.7,98,85,62,30.20,30.08,3,0,10,0.00
2013-7-18,88.3,76.9,69.5,73.9,71.3,67.1,98,85,53,30.15,29.98,6,0,13,0.14
2013-7-19,89.1,78.3,70.0,76.4,72.3,69.1,98,84,54,30.05,29.91,2,0,10,0.09
2013-7-20,88.4,75.3,69.9,75.9,71.6,69.0,99,89,60,29.96,29.89,4,0,9,0.09
2013-7-21,85.3,76.6,72.2,76.5,73.4,71.0,98,90,71,30.01,29.94,3,0,9,0.24
2013-7-22,88.6,77.0,72.5,78.2,74.0,71.1,98,91,67,30.02,29.94,8,1,16,0.45
2013-7-23,89.9,81.2,74.7,77.9,75.5,73.6,98,84,60,30.02,29.86,5,1,13,0.45
2013-7-24,87.3,79.3,71.8,76.1,74.1,69.8,97,85,64,29.93,29.84,10,1,24,0.18
2013-7-25,88.3,77.3,71.3,75.6,72.2,68.3,99,86,58,30.01,29.88,3,0,12,0.18
2013-7-26,88.8,77.9,67.6,75.8,69.7,65.5,94,77,57,30.04,29.92,2,0,6,0.00
2013-7-27,80.6,76.2,73.2,77.8,74.5,71.6,98,95,83,29.92,29.81,2,0,8,1.12
2013-7-28,87.1,78.2,71.1,76.3,73.2,70.5,98,86,64,29.98,29.85,2,0,7,1.13
2013-7-29,91.1,82.6,72.7,78.0,74.7,71.7,97,78,58,30.07,29.97,1,0,6,0.00
2013-7-30,91.5,82.0,73.8,79.2,75.5,72.9,98,82,58,30.11,30.01,1,0,8,0.00
2013-7-31,91.5,83.0,75.5,78.8,75.5,73.5,95,79,57,30.07,29.92,3,0,8,0.00
2013-8-1,91.8,79.6,73.7,79.4,75.1,72.5,98,87,62,30.00,29.86,5,0,10,1.23
2013-8-2,92.2,80.5,72.5,78.4,74.4,71.9,99,83,55,29.98,29.89,3,0,8,1.23
2013-8-3,91.4,82.3,74.7,80.6,76.0,73.0,97,83,57,30.03,29.95,1,0,6,0.00
2013-8-4,93.9,83.7,74.7,79.2,75.7,71.7,98,79,52,30.06,29.93,3,0,7,0.00
2013-8-5,93.3,83.3,75.2,78.8,75.8,73.2,96,80,54,30.02,29.90,3,0,9,0.00
2013-8-6,94.0,84.8,75.2,77.9,74.9,71.2,97,74,50,29.97,29.85,2,0,7,0.00
2013-8-7,94.7,84.5,75.5,78.4,75.1,71.7,97,76,49,29.95,29.83,3,0,8,0.00
2013-8-8,94.5,83.4,75.1,79.2,75.7,73.0,97,79,53,29.93,29.83,4,0,9,0.00
2013-8-9,91.8,79.9,75.6,78.4,75.2,73.2,96,87,58,29.99,29.89,6,0,12,0.01
2013-8-10,93.5,81.6,75.2,78.6,74.5,70.0,98,81,51,30.06,29.95,2,0,10,0.01
2013-8-11,90.2,80.4,74.1,77.1,74.9,72.9,97,84,58,30.08,30.01,5,0,14,0.00
2013-8-12,91.0,78.2,72.9,81.7,74.0,69.6,97,88,56,30.07,29.96,7,0,16,0.56
2013-8-13,87.0,76.1,71.1,80.6,74.0,70.5,99,94,75,30.01,29.89,9,0,22,1.69
2013-8-14,82.8,73.9,70.8,77.4,72.7,70.2,99,96,81,29.98,29.88,2,0,8,0.16
2013-8-15,85.9,76.8,69.6,75.2,71.8,69.0,98,86,61,29.98,29.89,2,0,5,0.01
2013-8-16,87.3,76.8,68.9,74.8,70.7,67.4,98,83,58,29.97,29.87,7,0,19,2.95
2013-8-17,81.0,73.0,67.6,73.3,70.2,67.0,100,91,74,29.97,29.91,4,0,10,0.00
2013-8-18,78.0,72.4,68.1,72.7,70.1,67.5,98,93,79,30.00,29.93,5,1,13,0.01
2013-8-19,85.5,75.8,71.5,75.4,72.1,70.5,98,89,67,30.03,29.94,1,0,8,0.00
2013-8-20,89.7,76.6,70.2,76.2,72.7,69.6,99,89,56,30.04,29.95,2,0,8,0.07
2013-8-21,85.9,76.7,70.8,77.1,73.4,70.0,99,90,68,30.10,30.01,3,0,9,0.00
2013-8-22,89.7,80.3,72.0,76.7,73.9,71.4,99,82,57,30.07,29.93,2,0,8,0.00
2013-8-23,88.9,79.1,71.9,76.5,73.5,71.3,99,84,60,29.99,29.89,4,1,12,0.00
2013-8-24,85.7,76.2,71.1,76.4,72.7,70.5,98,90,69,30.08,29.95,4,0,12,0.00
2013-8-25,85.1,76.1,69.8,77.7,73.0,68.9,98,91,71,30.15,30.06,3,0,10,0.12
2013-8-26,86.8,77.5,71.2,74.8,70.9,67.5,98,82,55,30.17,30.07,3,0,10,0.01
2013-8-27,84.5,75.4,65.8,70.0,65.7,63.6,94,74,52,30.11,30.01,3,0,9,0.00
2013-8-28,85.0,77.9,66.6,70.0,66.9,64.1,94,70,53,30.08,29.99,2,0,7,0.00
2013-8-29,88.7,76.1,65.8,72.1,67.2,64.0,95,76,49,30.06,29.95,2,0,8,0.00
2013-8-30,90.5,78.2,67.7,76.2,70.3,66.6,97,79,50,30.01,29.89,2,0,6,0.00
2013-8-31,91.9,79.6,71.2,77.3,72.3,69.4,96,80,53,29.95,29.82,2,0,7,0.00
2013-9-1,91.7,80.3,72.1,77.0,73.6,70.8,97,81,53,29.92,29.81,3,0,8,0.00
2013-9-2,90.4,80.2,72.8,78.7,74.4,71.7,97,84,59,29.95,29.82,2,0,8,0.00
2013-9-3,90.2,78.6,74.1,80.5,75.1,72.8,98,90,62,29.94,29.83,2,0,9,0.14
2013-9-4,90.9,80.0,71.3,77.2,73.6,70.6,98,82,56,30.04,29.92,2,0,9,0.00
2013-9-5,88.8,78.3,72.1,77.4,73.9,71.4,98,87,63,30.08,29.99,2,0,7,0.00
2013-9-6,89.4,79.0,71.5,77.3,73.2,70.2,99,84,56,30.08,29.95,2,0,7,0.00
2013-9-7,90.6,79.6,70.2,74.9,71.7,69.3,98,79,51,30.03,29.92,1,0,5,0.00
2013-9-8,90.5,79.0,68.8,74.1,70.2,67.7,98,77,48,29.99,29.89,2,0,7,0.00
2013-9-9,88.0,74.3,68.6,74.0,69.8,67.6,97,87,60,30.02,29.92,1,0,4,0.00
2013-9-10,90.4,79.8,70.6,75.9,72.3,69.4,97,79,56,30.08,29.99,7,0,0,0.00
2013-9-11,89.9,79.9,71.6,74.0,71.6,68.2,96,77,50,30.09,29.99,5,0,4,0.00
2013-9-12,90.8,79.4,69.8,73.9,69.1,65.4,98,74,44,30.03,29.87,4,0,10,0.00
2013-9-13,92.0,77.6,71.3,78.0,71.3,68.1,97,83,48,29.92,29.77,4,0,8,0.03
2013-9-14,87.9,76.6,67.0,72.0,65.7,61.1,98,71,44,29.95,29.85,3,0,11,0.01
2013-9-15,88.8,77.3,65.4,73.3,67.3,60.4,89,73,55,30.03,29.94,5,0,2,0.00
2013-9-16,91.1,79.2,71.3,75.3,71.6,67.9,97,80,49,30.06,29.96,4,0,12,0.00
2013-9-17,91.1,80.1,70.3,71.3,67.7,63.1,95,69,40,30.06,29.92,4,0,11,0.00
2013-9-18,88.8,76.9,70.6,74.7,70.6,66.4,97,82,57,30.05,29.93,3,0,9,0.05
2013-9-19,87.8,76.1,70.4,76.7,72.7,69.5,98,90,64,30.02,29.91,6,0,14,1.21
2013-9-20,87.8,77.5,72.1,77.3,74.6,71.5,99,92,66,29.97,29.76,2,0,14,0.14
2013-9-21,76.8,71.4,67.8,76.2,70.9,67.2,99,98,96,29.77,29.72,7,1,13,3.98
2013-9-22,78.7,69.4,61.8,68.6,61.2,54.8,99,77,44,29.82,29.74,6,1,11,0.01
2013-9-23,85.8,74.8,61.6,75.5,68.0,57.0,95,80,68,29.83,29.75,2,0,7,0.00
2013-9-24,79.0,74.7,69.9,78.1,73.6,69.3,98,96,88,29.82,29.74,5,0,12,0.48
2013-9-25,86.1,74.4,66.5,73.3,66.4,56.8,99,79,38,29.81,29.73,4,0,10,0.00
2013-9-26,84.9,73.3,62.0,69.4,64.5,61.1,98,76,50,29.92,29.79,3,0,9,0.00
2013-9-27,84.1,74.6,67.7,72.5,68.9,65.2,99,84,63,30.00,29.91,2,0,6,0.00
2013-9-28,83.3,73.0,64.8,68.4,65.6,62.0,97,79,54,30.05,29.96,2,0,5,0.00
2013-9-29,74.8,68.8,63.5,71.9,66.6,60.9,98,93,85,30.02,29.92,1,0,4,0.05
2013-9-30,81.2,72.2,65.7,74.2,69.3,64.5,98,91,73,29.93,29.86,2,0,9,0.01
2013-10-1,81.9,73.4,67.6,73.7,70.4,67.0,99,91,72,30.01,29.92,2,0,9,0.00
2013-10-2,83.3,74.6,70.6,75.2,71.8,69.4,98,91,71,30.03,29.93,2,0,7,0.17
2013-10-3,85.1,76.1,70.2,76.0,72.5,69.6,99,89,65,30.01,29.90,2,0,9,0.00
2013-10-4,86.4,76.2,71.1,74.3,71.9,70.4,99,88,63,30.01,29.91,4,0,11,0.00
2013-10-5,83.2,75.8,70.8,77.3,72.6,69.8,99,90,75,29.98,29.85,2,0,13,0.15
2013-10-6,72.5,69.8,66.0,71.8,67.7,59.5,99,93,75,29.88,29.82,5,1,10,0.07
2013-10-7,71.5,61.4,53.3,56.7,53.1,50.2,91,75,56,30.04,29.93,6,1,13,0.00
2013-10-8,74.4,62.3,52.9,58.6,53.7,50.6,92,75,49,30.04,29.97,3,0,11,0.00
2013-10-9,80.5,66.5,53.1,66.6,59.5,52.0,98,80,53,30.08,29.99,2,0,5,0.00
2013-10-10,79.0,69.0,64.8,69.3,66.0,64.2,99,91,66,30.09,29.96,2,0,6,0.00
2013-10-11,83.0,71.7,65.4,72.4,68.5,64.7,99,91,62,30.03,29.92,1,0,6,0.01
2013-10-12,86.6,74.0,65.1,73.5,69.2,64.5,99,86,56,30.05,29.95,2,0,6,0.00
2013-10-13,84.8,74.7,67.5,73.8,69.8,66.9,99,86,59,30.14,30.02,3,0,6,0.00
2013-10-14,82.3,71.9,65.2,68.4,65.9,63.5,95,83,55,30.10,29.99,2,0,8,0.00
2013-10-15,83.3,71.9,62.1,70.3,65.5,61.1,100,82,56,30.03,29.90,4,0,0,0.00
2013-10-16,80.0,73.5,69.4,72.4,69.9,67.5,98,89,73,29.96,29.85,4,0,9,0.00
2013-10-17,72.2,64.3,56.8,70.7,63.0,56.0,99,96,92,29.99,29.87,2,0,7,0.13
2013-10-18,70.3,61.1,52.8,61.4,56.5,52.3,99,86,62,30.06,29.90,5,0,13,0.01
2013-10-19,70.3,61.6,53.7,61.3,57.7,51.7,98,87,66,30.02,29.89,4,0,10,0.24
2013-10-20,72.0,58.0,47.7,58.2,51.2,46.1,95,80,52,30.07,29.96,2,0,8,0.00
2013-10-21,70.8,60.6,50.3,63.4,56.7,48.9,96,88,71,30.04,29.93,1,0,5,0.00
2013-10-22,72.4,63.3,56.1,62.8,59.3,54.1,98,88,67,29.99,29.92,4,0,10,0.00
2013-10-23,70.6,59.0,49.7,54.1,48.5,42.8,96,71,38,30.12,29.99,5,1,12,0.00
2013-10-24,77.3,61.4,47.0,59.8,51.1,44.0,94,71,45,30.22,30.08,3,0,10,0.00
2013-10-25,63.9,54.5,46.9,53.1,43.3,38.1,87,68,43,30.39,30.21,6,2,14,0.00
2013-10-26,73.4,55.8,41.0,51.5,43.8,37.5,90,67,38,30.30,30.13,1,0,8,0.00
2013-10-27,69.8,60.6,51.5,61.2,55.5,47.1,98,84,67,30.13,30.02,1,0,7,0.00
2013-10-28,80.0,69.5,60.5,67.3,63.3,59.0,96,82,59,30.16,30.03,2,0,6,0.00
2013-10-29,77.4,67.9,60.4,67.2,63.0,59.8,99,85,62,30.20,30.11,2,0,10,0.00
2013-10-30,74.8,68.3,62.3,68.4,65.4,61.4,98,91,79,30.17,29.99,2,0,8,0.00
2013-10-31,74.6,69.3,64.1,71.2,68.1,63.5,99,96,88,29.99,29.71,7,1,20,1.22
2013-11-1,71.8,62.8,52.0,63.4,56.4,50.1,98,82,49,29.92,29.80,4,0,11,0.00
2013-11-2,67.2,57.9,50.0,52.3,47.8,42.8,97,71,42,30.16,29.91,6,1,16,0.00
2013-11-3,64.0,52.3,43.2,47.5,43.8,40.2,95,75,50,30.24,30.10,4,0,12,0.00
2013-11-4,69.7,56.2,43.8,57.5,50.9,42.6,96,83,61,30.25,30.13,2,0,7,0.00
2013-11-5,72.6,63.2,58.0,62.4,57.8,53.8,96,83,67,30.21,30.08,4,0,13,0.00
2013-11-6,78.0,65.7,54.8,71.3,63.2,54.0,98,92,74,30.11,30.00,6,0,13,0.18
2013-11-7,64.0,52.4,44.3,63.4,45.8,38.8,100,80,49,30.33,30.08,8,3,16,0.01
2013-11-8,61.1,51.0,40.9,44.2,39.9,35.9,86,68,45,30.35,30.19,7,1,15,0.00
2013-11-9,67.7,56.0,45.3,55.3,47.6,39.7,87,74,58,30.24,30.15,2,0,6,0.00
2013-11-10,70.5,59.4,52.0,55.5,50.7,46.7,92,75,43,30.27,30.17,3,0,9,0.00
2013-11-11,74.0,60.3,51.1,53.8,50.0,46.4,89,71,45,30.24,30.12,1,0,5,0.00
2013-11-12,64.8,49.6,35.7,54.5,43.4,28.8,86,79,67,30.50,30.17,9,3,22,0.00
2013-11-13,52.7,39.7,30.6,31.5,26.1,22.4,79,60,34,30.55,30.41,7,2,15,0.00
2013-11-14,61.9,47.7,32.0,47.2,37.6,25.1,80,68,55,30.41,30.13,2,0,8,0.00
2013-11-15,67.0,57.9,50.6,62.5,55.1,45.5,98,91,75,30.14,29.97,2,0,8,0.48
2013-11-16,74.7,67.2,60.3,68.7,65.0,59.6,99,93,80,30.03,29.91,3,0,9,0.01
2013-11-17,78.2,71.8,67.8,74.0,70.6,67.2,99,96,86,29.93,29.81,2,0,12,0.02
2013-11-18,75.8,66.4,54.6,71.8,47.8,34.7,99,55,29,30.10,29.92,9,2,25,0.01
2013-11-19,61.4,52.0,41.9,40.9,34.3,26.6,76,53,27,30.16,30.05,6,2,17,0.00
2013-11-20,70.0,53.1,39.5,49.2,40.1,32.2,92,64,36,30.11,30.01,2,0,9,0.00
2013-11-21,66.3,60.0,51.0,63.6,58.7,49.0,98,95,90,30.19,30.09,3,0,10,0.00
2013-11-22,69.7,64.7,62.3,66.0,63.7,61.6,99,97,86,30.26,30.12,5,0,11,0.20
2013-11-23,62.2,52.0,41.8,61.6,51.0,37.9,99,96,86,30.36,30.16,7,2,17,0.09
2013-11-24,47.8,39.8,33.6,35.8,28.1,24.8,82,64,44,30.42,30.30,8,3,21,0.00
2013-11-25,44.4,41.6,37.0,43.9,37.8,25.3,98,87,62,30.31,29.91,5,1,13,0.71
2013-11-26,47.3,41.9,37.1,46.8,41.1,35.8,100,97,95,30.07,29.75,8,3,19,1.15
2013-11-27,43.3,35.6,26.0,35.7,28.1,23.6,95,76,47,30.41,30.06,9,2,18,0.00
2013-11-28,46.2,33.6,24.6,34.3,26.3,21.6,92,76,44,30.49,30.38,2,0,10,0.00
2013-11-29,58.7,42.2,28.4,34.3,29.3,26.2,93,63,32,30.54,30.41,4,0,8,0.00
2013-11-30,65.8,46.9,32.2,38.1,32.2,28.0,86,60,28,30.44,30.24,1,0,3,0.00
2013-12-1,67.8,54.0,38.5,55.1,46.9,35.3,95,78,55,30.25,29.96,2,0,6,0.00
2013-12-2,71.0,60.6,52.3,62.8,57.0,49.4,98,88,74,29.97,29.70,2,0,10,0.00
2013-12-3,75.5,67.1,61.0,66.5,63.8,60.4,99,90,68,29.76,29.65,4,1,14,0.00
2013-12-4,77.5,71.0,67.4,69.3,67.7,66.0,97,90,72,29.89,29.76,4,1,12,0.00
2013-12-5,78.8,73.0,69.5,71.4,70.0,68.6,97,91,76,29.97,29.86,3,0,12,0.01
2013-12-6,72.7,48.5,35.0,71.2,47.6,34.0,99,97,87,30.24,29.88,6,2,14,0.20
2013-12-7,35.8,33.6,30.9,35.3,32.5,29.9,98,95,91,30.36,30.23,6,2,15,0.01
2013-12-8,45.6,40.7,35.8,45.3,40.3,35.3,99,99,98,30.25,30.01,2,0,5,3.72
2013-12-9,46.4,44.1,37.7,45.5,43.6,37.0,100,98,95,30.15,30.05,3,0,9,0.11
2013-12-10,46.2,37.5,32.8,37.1,33.1,30.4,98,85,62,30.39,30.14,8,2,21,0.28
2013-12-11,54.8,43.4,31.5,47.6,37.3,28.9,95,80,62,30.44,30.31,2,0,8,0.00
2013-12-12,52.6,40.4,32.5,34.0,28.2,21.9,88,65,31,30.53,30.36,5,2,12,0.00
2013-12-13,57.4,45.4,32.5,52.6,37.8,23.6,92,75,59,30.36,29.90,3,0,8,0.00
2013-12-14,66.8,56.5,42.3,61.5,53.9,40.3,100,91,77,30.08,29.80,7,1,12,0.59
2013-12-15,47.4,39.8,31.0,40.5,34.4,29.7,95,81,65,30.30,30.08,8,2,20,0.00
2013-12-16,60.1,42.5,28.2,39.9,33.5,27.5,98,74,38,30.34,30.22,1,0,10,0.00
2013-12-17,63.1,47.2,33.8,42.8,37.8,32.0,96,73,42,30.33,30.22,2,0,8,0.00
2013-12-18,65.2,49.7,37.0,43.7,39.0,-99.9,95,70,43,30.36,30.19,2,0,8,0.00
2013-12-19,68.6,57.9,45.1,58.9,52.2,37.4,93,82,68,30.19,30.00,2,0,13,0.00
2013-12-20,73.7,66.6,59.5,68.3,63.8,56.7,96,91,81,30.02,29.90,3,1,14,0.09
2013-12-21,76.1,70.6,57.8,70.0,67.2,56.3,97,89,80,29.90,29.66,10,3,19,0.64
2013-12-22,63.0,57.6,50.1,60.2,56.0,48.6,99,95,82,30.16,29.76,3,0,10,0.51
2013-12-23,49.9,38.8,30.1,48.4,34.7,27.5,96,85,69,30.48,30.15,7,2,15,0.00
2013-12-24,48.2,36.1,28.4,30.2,27.2,25.5,92,72,47,30.53,30.38,7,1,12,0.00
2013-12-25,47.4,36.5,26.6,32.2,27.1,23.6,89,70,45,30.41,30.29,1,0,5,0.00
2013-12-26,55.9,45.3,33.7,39.0,33.1,26.6,78,63,46,30.40,30.28,4,1,11,0.00
2013-12-27,52.3,45.2,38.6,36.2,34.2,30.5,85,66,45,30.43,30.27,3,0,10,0.00
2013-12-28,46.7,44.7,41.8,46.0,41.8,32.2,98,90,57,30.29,29.94,2,0,8,0.74
2013-12-29,57.7,48.0,41.9,47.8,43.6,41.1,98,86,56,30.11,29.96,2,0,7,0.01
2013-12-30,51.9,46.2,39.4,47.2,43.2,36.3,97,89,79,30.33,30.08,3,0,9,0.00
2013-12-31,45.0,40.1,35.1,37.9,35.7,32.6,92,84,71,30.42,30.29,3,0,8,0.00
2014-1-1,54.6,48.0,40.4,52.2,46.0,37.8,98,92,86,30.30,30.01,1,0,4,0.07
2014-1-2,55.6,47.0,32.4,55.4,40.4,23.6,100,79,53,30.35,29.94,10,3,22,0.10